Time;durP1;ratioP1;P1;durP2;ratioP2;P2;SDS_P1;SDS_P2;PMS_P1;PMS_P2;Temp;Humidity;BMP_temperature;BMP_pressure;BME280_temperature;BME280_humidity;BME280_pressure;Samples;Min_cycle;Max_cycle;Signal;HPM_P1;HPM_P2
2023/11/28 00:01:09;;;;;;;2.53;2.20;;;6.60;99.90;;;;;;5026260;28;20041;-78
2023/11/28 00:03:36;;;;;;;2.85;2.20;;;6.60;99.90;;;;;;5009631;28;20057;-79
2023/11/28 00:06:03;;;;;;;3.33;1.90;;;6.60;99.90;;;;;;5026372;28;20383;-78
2023/11/28 00:08:29;;;;;;;3.55;2.22;;;6.60;1.00;;;;;;5026323;28;20096;-79
2023/11/28 00:10:56;;;;;;;3.13;2.00;;;6.60;99.90;;;;;;5025104;28;20160;-79
2023/11/28 00:13:27;;;;;;;2.22;1.77;;;6.60;99.90;;;;;;5009752;28;20091;-79
2023/11/28 00:15:54;;;;;;;5.00;1.90;;;6.60;1.00;;;;;;5009696;28;20053;-78
2023/11/28 00:18:22;;;;;;;2.53;1.73;;;6.60;99.90;;;;;;5025460;28;20099;-79
2023/11/28 00:20:49;;;;;;;2.55;1.90;;;6.60;99.90;;;;;;5027389;28;20057;-79
2023/11/28 00:23:16;;;;;;;3.40;1.95;;;6.60;99.90;;;;;;5024005;28;20372;-79
2023/11/28 00:25:43;;;;;;;2.60;1.92;;;6.70;99.90;;;;;;5022008;28;20052;-79
2023/11/28 00:28:10;;;;;;;2.95;1.60;;;6.60;1.00;;;;;;5022187;28;20045;-78
2023/11/28 00:30:37;;;;;;;2.28;1.88;;;6.60;99.90;;;;;;5025580;28;20053;-79
2023/11/28 00:33:04;;;;;;;3.40;1.58;;;6.60;99.90;;;;;;4993096;28;20156;-78
2023/11/28 00:35:31;;;;;;;2.35;1.80;;;6.60;99.90;;;;;;5009394;28;20151;-78
2023/11/28 00:37:58;;;;;;;2.72;1.90;;;6.60;99.90;;;;;;5007414;28;20077;-78
2023/11/28 00:40:28;;;;;;;2.03;1.73;;;6.60;99.90;;;;;;5024701;28;20132;-79
2023/11/28 00:42:57;;;;;;;2.85;1.90;;;6.70;57.10;;;;;;5025262;28;20041;-79
2023/11/28 00:45:25;;;;;;;2.65;1.40;;;6.70;37.30;;;;;;4993485;28;20057;-78
2023/11/28 00:47:52;;;;;;;2.67;1.58;;;6.70;1.00;;;;;;5025322;28;20857;-78
2023/11/28 00:50:20;;;;;;;3.03;1.48;;;6.70;1.00;;;;;;4992746;28;20888;-79
2023/11/28 00:52:47;;;;;;;2.75;1.45;;;6.70;99.90;;;;;;5007461;28;20046;-79
2023/11/28 00:55:16;;;;;;;3.13;1.48;;;6.70;1.00;;;;;;5025258;28;20140;-78
2023/11/28 00:57:44;;;;;;;2.20;1.45;;;6.70;99.90;;;;;;5024631;28;20046;-78
2023/11/28 01:00:13;;;;;;;3.40;1.50;;;6.60;99.90;;;;;;5025203;28;20069;-78
2023/11/28 01:02:41;;;;;;;2.72;1.50;;;6.60;99.90;;;;;;4991109;28;20051;-78
2023/11/28 01:05:08;;;;;;;1.85;1.30;;;6.60;99.90;;;;;;5021626;28;20127;-78
2023/11/28 01:07:36;;;;;;;3.05;1.48;;;6.60;1.00;;;;;;4990888;28;20123;-78
2023/11/28 01:10:04;;;;;;;2.83;1.30;;;6.60;99.90;;;;;;5025591;28;20049;-78
2023/11/28 01:12:31;;;;;;;1.70;1.20;;;6.60;1.00;;;;;;5008787;28;20100;-78
2023/11/28 01:14:58;;;;;;;1.25;1.15;;;6.50;1.00;;;;;;5026054;28;20064;-78
2023/11/28 01:17:25;;;;;;;1.88;1.30;;;6.60;1.00;;;;;;5024532;28;20055;-78
2023/11/28 01:19:52;;;;;;;3.50;1.48;;;6.60;1.00;;;;;;5025226;28;20520;-78
2023/11/28 01:22:19;;;;;;;1.33;1.05;;;6.50;99.90;;;;;;5008220;28;20063;-78
2023/11/28 01:24:46;;;;;;;2.78;1.73;;;6.60;1.00;;;;;;5024641;28;20439;-79
2023/11/28 01:27:14;;;;;;;2.95;1.40;;;6.50;1.00;;;;;;5024665;28;20049;-78
2023/11/28 01:29:41;;;;;;;2.70;1.20;;;6.50;1.00;;;;;;5024914;28;20049;-77
2023/11/28 01:32:08;;;;;;;2.45;1.17;;;6.50;99.90;;;;;;5008613;28;20042;-78
2023/11/28 01:34:35;;;;;;;2.30;1.27;;;6.50;1.00;;;;;;5025996;28;20099;-78
2023/11/28 01:37:02;;;;;;;2.22;1.33;;;6.50;99.90;;;;;;5024981;28;20055;-78
2023/11/28 01:39:29;;;;;;;3.00;1.40;;;6.50;1.00;;;;;;5007576;28;20115;-79
2023/11/28 01:41:56;;;;;;;3.10;1.40;;;6.50;1.00;;;;;;4992015;28;20050;-78
2023/11/28 01:44:23;;;;;;;1.95;1.50;;;6.50;1.00;;;;;;5024636;28;20630;-78
2023/11/28 01:46:51;;;;;;;2.67;1.40;;;6.50;1.00;;;;;;5024695;28;20072;-77
2023/11/28 01:49:18;;;;;;;2.20;1.50;;;6.50;1.00;;;;;;5024268;28;20049;-78
2023/11/28 01:51:45;;;;;;;2.25;1.50;;;6.50;1.00;;;;;;5029406;28;20053;-78
2023/11/28 01:54:12;;;;;;;3.83;1.50;;;6.40;1.00;;;;;;5028621;28;20119;-78
2023/11/28 01:56:38;;;;;;;2.20;1.50;;;6.50;1.00;;;;;;5028134;28;20064;-78
2023/11/28 01:59:08;;;;;;;1.90;1.30;;;6.40;1.00;;;;;;5013941;28;20053;-77
2023/11/28 02:01:35;;;;;;;2.88;1.73;;;6.40;1.00;;;;;;5011584;28;20805;-78
2023/11/28 02:04:02;;;;;;;2.60;1.60;;;6.40;1.00;;;;;;5011692;28;20060;-78
2023/11/28 02:06:29;;;;;;;2.47;1.83;;;6.40;45.40;;;;;;5012132;28;20083;-79
2023/11/28 02:08:56;;;;;;;4.30;1.35;;;6.30;84.20;;;;;;5027637;28;20060;-79
2023/11/28 02:11:23;;;;;;;2.08;1.33;;;6.30;1.00;;;;;;4994984;28;20053;-78
2023/11/28 02:13:50;;;;;;;1.67;1.55;;;6.40;1.00;;;;;;5011850;28;20514;-78
2023/11/28 02:16:17;;;;;;;3.15;1.58;;;6.40;23.60;;;;;;5011646;28;20065;-78
2023/11/28 02:18:45;;;;;;;2.83;1.60;;;6.40;1.00;;;;;;5028960;28;20057;-78
2023/11/28 02:21:12;;;;;;;1.60;1.35;;;6.40;1.00;;;;;;5029049;28;20048;-78
2023/11/28 02:23:39;;;;;;;1.80;1.02;;;6.40;1.00;;;;;;5027163;28;20126;-78
2023/11/28 02:26:22;;;;;;;1.60;1.02;;;6.40;1.00;;;;;;5027253;28;20224;-78
2023/11/28 02:28:49;;;;;;;2.38;1.33;;;6.40;1.00;;;;;;5011998;28;20053;-78
2023/11/28 02:31:16;;;;;;;2.83;1.30;;;6.40;1.00;;;;;;5023475;28;20447;-78
2023/11/28 02:33:44;;;;;;;2.28;1.27;;;6.40;99.90;;;;;;5009602;28;20062;-78
2023/11/28 02:36:11;;;;;;;1.40;1.08;;;6.40;1.00;;;;;;5009539;28;20542;-78
2023/11/28 02:38:38;;;;;;;1.83;1.30;;;6.40;99.90;;;;;;5025764;28;20072;-78
2023/11/28 02:41:05;;;;;;;2.25;1.23;;;6.40;1.00;;;;;;5029164;28;20157;-78
2023/11/28 02:43:32;;;;;;;1.73;1.00;;;6.40;99.90;;;;;;5013216;28;20127;-78
2023/11/28 02:45:59;;;;;;;3.03;1.27;;;6.30;1.00;;;;;;5028678;28;20127;-79
2023/11/28 02:48:27;;;;;;;2.17;1.33;;;6.30;99.90;;;;;;5010807;28;20049;-78
2023/11/28 02:50:53;;;;;;;2.05;1.25;;;6.30;1.00;;;;;;5027514;28;20046;-78
2023/11/28 02:53:21;;;;;;;1.25;0.90;;;6.30;87.20;;;;;;5010098;28;20049;-78
2023/11/28 02:55:47;;;;;;;1.95;1.20;;;6.30;99.90;;;;;;5010959;28;20076;-78
2023/11/28 02:58:14;;;;;;;2.22;1.55;;;6.30;1.00;;;;;;5011033;28;20223;-78
2023/11/28 03:00:41;;;;;;;2.63;1.60;;;6.20;43.50;;;;;;5011782;28;20410;-78
2023/11/28 03:03:08;;;;;;;3.28;1.55;;;6.20;12.80;;;;;;5020666;28;20073;-79
2023/11/28 03:05:36;;;;;;;1.98;1.27;;;6.10;9.50;;;;;;5007816;28;20103;-78
2023/11/28 03:08:03;;;;;;;2.50;1.77;;;6.10;93.60;;;;;;5009867;28;20076;-79
2023/11/28 03:10:30;;;;;;;2.10;1.20;;;6.00;99.90;;;;;;5024580;28;20058;-79
2023/11/28 03:12:57;;;;;;;1.75;1.20;;;6.10;99.90;;;;;;5024124;28;20053;-79
2023/11/28 03:15:24;;;;;;;3.35;1.65;;;6.10;99.90;;;;;;5028984;28;20083;-78
2023/11/28 03:17:50;;;;;;;1.90;1.38;;;6.10;99.90;;;;;;5028685;28;20049;-78
2023/11/28 03:20:17;;;;;;;1.40;0.98;;;6.10;1.00;;;;;;5028421;28;20136;-79
2023/11/28 03:22:45;;;;;;;1.80;1.15;;;6.00;99.90;;;;;;5026392;28;20049;-78
2023/11/28 03:25:12;;;;;;;2.03;1.17;;;6.00;99.90;;;;;;5028126;28;20158;-78
2023/11/28 03:27:39;;;;;;;1.75;1.00;;;5.90;99.90;;;;;;5010696;28;20147;-78
2023/11/28 03:30:06;;;;;;;2.55;1.17;;;5.90;99.90;;;;;;5010941;28;20107;-78
2023/11/28 03:32:33;;;;;;;2.05;1.35;;;5.80;1.00;;;;;;5010482;28;20053;-78
2023/11/28 03:35:00;;;;;;;1.83;1.30;;;5.70;1.00;;;;;;5028741;28;20046;-78
2023/11/28 03:37:28;;;;;;;2.08;1.30;;;5.70;99.90;;;;;;4993732;28;20042;-77
2023/11/28 03:39:55;;;;;;;2.55;1.40;;;5.60;99.90;;;;;;5027711;28;20139;-79
2023/11/28 03:42:22;;;;;;;1.50;1.00;;;5.60;1.00;;;;;;5027243;28;20054;-78
2023/11/28 03:44:49;;;;;;;1.10;0.75;;;5.50;1.00;;;;;;5027350;28;20057;-78
2023/11/28 03:47:16;;;;;;;1.77;1.10;;;5.50;37.20;;;;;;5027824;28;20115;-78
2023/11/28 03:49:43;;;;;;;1.70;1.10;;;5.40;99.90;;;;;;5011066;28;20133;-78
2023/11/28 03:52:10;;;;;;;1.85;1.10;;;5.40;99.90;;;;;;5026622;28;20057;-78
2023/11/28 03:54:37;;;;;;;1.40;0.98;;;5.40;99.90;;;;;;5027119;28;20045;-78
2023/11/28 03:57:04;;;;;;;1.40;0.88;;;5.30;1.00;;;;;;5026981;28;20053;-78
2023/11/28 03:59:31;;;;;;;1.60;1.13;;;5.30;79.40;;;;;;5026743;28;20053;-79
2023/11/28 04:01:58;;;;;;;2.00;0.95;;;5.30;99.90;;;;;;5026224;28;20495;-78
2023/11/28 04:04:25;;;;;;;1.88;0.82;;;5.20;99.90;;;;;;5026201;28;20058;-78
2023/11/28 04:06:52;;;;;;;1.73;1.00;;;5.20;99.90;;;;;;5026354;28;20073;-79
2023/11/28 04:09:19;;;;;;;1.17;0.70;;;5.20;99.90;;;;;;5026929;28;20540;-78
2023/11/28 04:11:47;;;;;;;1.65;1.02;;;5.20;1.00;;;;;;5010190;28;20049;-79
2023/11/28 04:14:15;;;;;;;0.80;0.70;;;5.10;1.00;;;;;;4992968;28;20072;-79
2023/11/28 04:16:42;;;;;;;0.82;0.68;;;5.10;57.30;;;;;;5026386;28;20049;-79
2023/11/28 04:19:09;;;;;;;1.48;0.80;;;5.10;99.90;;;;;;5026648;28;20076;-79
2023/11/28 04:21:36;;;;;;;1.40;0.80;;;5.10;99.90;;;;;;5025916;28;20171;-78
2023/11/28 04:24:03;;;;;;;2.50;0.82;;;5.00;99.90;;;;;;5026736;28;20571;-78
2023/11/28 04:26:30;;;;;;;1.50;0.70;;;5.00;99.90;;;;;;5025897;28;20564;-79
2023/11/28 04:28:56;;;;;;;3.05;0.80;;;5.00;1.00;;;;;;5027310;28;20753;-79
2023/11/28 04:31:23;;;;;;;0.60;0.60;;;5.00;1.00;;;;;;5009835;28;20119;-79
2023/11/28 04:33:50;;;;;;;2.13;0.73;;;5.00;92.90;;;;;;4993557;28;20115;-78
2023/11/28 04:36:18;;;;;;;1.10;0.70;;;5.00;99.90;;;;;;5025848;28;20115;-79
2023/11/28 04:38:45;;;;;;;2.03;0.85;;;5.00;99.90;;;;;;5026377;28;20537;-79
2023/11/28 04:41:12;;;;;;;1.02;0.70;;;4.90;99.90;;;;;;5009175;28;20079;-79
2023/11/28 04:43:39;;;;;;;1.63;1.05;;;4.90;99.90;;;;;;5027113;28;20080;-79
2023/11/28 04:46:06;;;;;;;1.45;0.77;;;4.90;99.90;;;;;;5009726;28;20548;-78
2023/11/28 04:48:33;;;;;;;1.80;0.88;;;4.90;99.90;;;;;;5027059;28;20045;-79
2023/11/28 04:51:00;;;;;;;1.85;1.30;;;4.80;1.00;;;;;;5026111;28;20076;-79
2023/11/28 04:53:27;;;;;;;3.30;1.17;;;4.80;1.00;;;;;;4991715;28;20053;-79
2023/11/28 04:55:54;;;;;;;1.20;0.75;;;4.80;1.00;;;;;;4992797;28;20591;-78
2023/11/28 04:58:21;;;;;;;1.88;0.80;;;4.80;80.70;;;;;;5025357;28;20683;-79
2023/11/28 05:00:49;;;;;;;3.22;0.98;;;4.80;99.90;;;;;;5025428;28;20049;-80
2023/11/28 05:03:16;;;;;;;2.13;0.90;;;4.80;99.90;;;;;;5009094;28;20119;-79
2023/11/28 05:05:43;;;;;;;1.80;1.08;;;4.80;99.90;;;;;;5009206;28;20169;-79
2023/11/28 05:08:10;;;;;;;2.05;1.13;;;4.80;99.90;;;;;;5024857;28;20049;-78
2023/11/28 05:10:37;;;;;;;3.63;1.30;;;4.70;99.90;;;;;;5024958;28;20163;-79
2023/11/28 05:13:04;;;;;;;1.92;1.00;;;4.70;99.90;;;;;;5025623;28;20062;-79
2023/11/28 05:15:32;;;;;;;4.57;1.25;;;4.70;99.90;;;;;;5025611;28;20562;-78
2023/11/28 05:17:59;;;;;;;2.42;1.23;;;4.70;99.90;;;;;;5026521;28;20054;-79
2023/11/28 05:20:26;;;;;;;3.42;1.67;;;4.70;99.90;;;;;;5026784;28;20049;-79
2023/11/28 05:22:53;;;;;;;2.20;1.20;;;4.70;99.90;;;;;;5024047;28;20041;-79
2023/11/28 05:25:20;;;;;;;2.30;1.15;;;4.70;99.90;;;;;;5008650;28;20587;-79
2023/11/28 05:27:47;;;;;;;1.77;1.05;;;4.70;99.90;;;;;;5026368;28;20057;-79
2023/11/28 05:30:14;;;;;;;1.98;1.00;;;4.70;99.90;;;;;;5025228;28;20704;-80
2023/11/28 05:32:41;;;;;;;3.75;0.82;;;4.60;99.90;;;;;;5044400;28;20146;-80
2023/11/28 05:35:09;;;;;;;2.33;1.10;;;4.60;99.90;;;;;;5059416;28;20060;-79
2023/11/28 05:37:36;;;;;;;4.25;1.17;;;4.60;99.90;;;;;;5042327;28;20057;-79
2023/11/28 05:40:04;;;;;;;1.80;1.05;;;4.60;99.90;;;;;;5058929;28;20053;-79
2023/11/28 05:42:35;;;;;;;1.20;0.90;;;4.60;99.90;;;;;;5051242;28;20555;-78
2023/11/28 05:45:02;;;;;;;2.28;1.20;;;4.60;99.90;;;;;;5026167;28;20107;-77
2023/11/28 05:47:29;;;;;;;2.08;1.00;;;4.50;99.90;;;;;;5020445;28;20050;-78
2023/11/28 05:49:57;;;;;;;2.25;0.98;;;4.50;99.90;;;;;;4987397;28;20137;-78
2023/11/28 05:52:25;;;;;;;1.70;0.90;;;4.50;29.10;;;;;;5006475;28;20107;-77
2023/11/28 05:54:52;;;;;;;1.48;0.90;;;4.50;1.00;;;;;;5018688;28;20042;-78
2023/11/28 05:57:19;;;;;;;2.60;1.00;;;4.50;1.00;;;;;;5019682;28;20080;-77
2023/11/28 05:59:46;;;;;;;1.33;0.88;;;4.50;1.00;;;;;;5022179;28;20151;-77
2023/11/28 06:02:13;;;;;;;1.25;0.82;;;4.40;43.00;;;;;;5002791;28;20042;-79
2023/11/28 06:04:40;;;;;;;1.15;0.77;;;4.50;97.60;;;;;;5017690;28;20088;-78
2023/11/28 06:07:07;;;;;;;2.03;1.00;;;4.40;2.10;;;;;;5018318;28;20049;-78
2023/11/28 06:09:34;;;;;;;1.83;0.90;;;4.40;1.00;;;;;;5019400;28;20045;-78
2023/11/28 06:12:01;;;;;;;1.50;1.08;;;4.40;19.80;;;;;;5020947;28;20072;-78
2023/11/28 06:14:30;;;;;;;1.67;1.20;;;4.40;4.30;;;;;;5017976;28;20045;-77
2023/11/28 06:16:59;;;;;;;2.10;1.20;;;4.40;13.10;;;;;;5024798;28;20045;-78
2023/11/28 06:19:27;;;;;;;1.50;0.98;;;4.30;99.90;;;;;;5019511;28;20045;-77
2023/11/28 06:21:54;;;;;;;1.40;0.93;;;4.30;75.10;;;;;;5007269;28;20050;-78
2023/11/28 06:24:21;;;;;;;2.08;1.15;;;4.30;98.00;;;;;;5015943;28;20551;-77
2023/11/28 06:26:48;;;;;;;1.05;0.80;;;4.30;99.90;;;;;;5020374;28;20384;-78
2023/11/28 06:29:15;;;;;;;1.08;0.70;;;4.30;99.90;;;;;;5015476;28;20049;-78
2023/11/28 06:31:42;;;;;;;0.98;0.80;;;4.30;99.90;;;;;;5024731;28;20132;-78
2023/11/28 06:34:09;;;;;;;1.90;1.27;;;4.20;99.90;;;;;;5015289;28;20437;-78
2023/11/28 06:36:36;;;;;;;2.10;0.80;;;4.20;99.90;;;;;;5014224;28;20124;-77
2023/11/28 06:39:03;;;;;;;1.42;0.80;;;4.20;99.90;;;;;;5023606;28;20045;-76
2023/11/28 06:41:30;;;;;;;1.30;0.80;;;4.20;99.90;;;;;;5006632;28;20057;-76
2023/11/28 06:43:58;;;;;;;2.58;1.05;;;4.10;99.90;;;;;;5013505;28;20054;-77
2023/11/28 06:46:29;;;;;;;1.30;1.02;;;4.10;99.90;;;;;;5027268;28;20061;-77
2023/11/28 06:48:56;;;;;;;2.47;1.60;;;4.10;99.90;;;;;;5004946;28;20133;-77
2023/11/28 06:51:23;;;;;;;2.47;1.27;;;4.00;99.90;;;;;;5021550;28;20053;-78
2023/11/28 06:53:50;;;;;;;2.78;1.30;;;4.00;1.00;;;;;;5020555;28;20451;-77
2023/11/28 06:56:17;;;;;;;2.40;1.20;;;4.00;1.00;;;;;;5022372;28;20049;-77
2023/11/28 06:58:44;;;;;;;1.08;0.82;;;3.90;65.70;;;;;;5022985;28;20147;-78
2023/11/28 07:01:11;;;;;;;1.52;1.00;;;4.00;99.90;;;;;;5010007;28;20053;-78
2023/11/28 07:03:38;;;;;;;2.55;0.93;;;4.00;99.90;;;;;;5010087;28;20402;-78
2023/11/28 07:06:06;;;;;;;2.40;1.02;;;3.90;99.90;;;;;;5022975;28;20077;-78
2023/11/28 07:08:36;;;;;;;2.75;0.95;;;3.90;99.90;;;;;;5023097;28;20103;-77
2023/11/28 07:11:03;;;;;;;1.95;0.93;;;3.90;99.90;;;;;;5026654;28;20099;-76
2023/11/28 07:13:32;;;;;;;3.55;1.55;;;3.90;99.90;;;;;;5057941;28;20053;-77
2023/11/28 07:16:01;;;;;;;1.67;0.95;;;3.90;99.90;;;;;;5008684;28;20049;-77
2023/11/28 07:18:27;;;;;;;2.58;0.82;;;4.00;99.90;;;;;;5022277;28;20117;-77
2023/11/28 07:20:54;;;;;;;1.80;1.15;;;3.90;99.90;;;;;;5022644;28;20111;-77
2023/11/28 07:23:21;;;;;;;1.02;0.77;;;3.90;99.90;;;;;;5020865;28;20061;-77
2023/11/28 07:25:48;;;;;;;2.42;0.90;;;3.90;99.90;;;;;;5000857;28;20064;-77
2023/11/28 07:28:15;;;;;;;0.70;0.50;;;3.90;99.90;;;;;;5009036;28;20075;-78
2023/11/28 07:30:44;;;;;;;0.90;0.60;;;3.90;99.90;;;;;;5022121;28;20479;-78
2023/11/28 07:33:11;;;;;;;1.33;0.88;;;3.90;99.90;;;;;;5009530;28;20042;-78
2023/11/28 07:35:39;;;;;;;1.77;1.17;;;3.80;99.90;;;;;;5007817;28;20081;-77
2023/11/28 07:38:06;;;;;;;0.60;0.50;;;3.80;99.90;;;;;;5005798;28;20049;-77
2023/11/28 07:40:33;;;;;;;1.27;0.68;;;3.80;99.90;;;;;;5021928;28;20372;-77
2023/11/28 07:43:00;;;;;;;2.35;1.13;;;3.80;99.90;;;;;;5025571;28;20145;-77
2023/11/28 07:45:29;;;;;;;3.15;1.27;;;3.80;99.90;;;;;;5025128;28;20132;-77
2023/11/28 07:47:57;;;;;;;2.58;1.13;;;3.80;99.90;;;;;;5027150;28;20132;-77
2023/11/28 07:50:24;;;;;;;2.03;1.08;;;3.70;99.90;;;;;;5003870;28;20069;-76
2023/11/28 07:52:51;;;;;;;2.53;1.00;;;3.70;99.90;;;;;;5019112;28;20050;-77
2023/11/28 07:55:19;;;;;;;1.55;0.90;;;3.70;99.90;;;;;;5025791;28;20049;-77
2023/11/28 07:57:46;;;;;;;1.38;1.00;;;3.70;99.90;;;;;;5021315;28;20068;-77
2023/11/28 08:00:13;;;;;;;1.23;0.70;;;3.70;99.90;;;;;;5021148;28;20046;-77
2023/11/28 08:02:41;;;;;;;1.50;0.80;;;3.80;99.90;;;;;;5020617;28;20529;-77
2023/11/28 08:05:08;;;;;;;1.17;0.73;;;3.70;99.90;;;;;;5020483;28;20738;-77
2023/11/28 08:07:36;;;;;;;1.48;0.95;;;3.80;99.90;;;;;;5021551;28;20053;-77
2023/11/28 08:10:05;;;;;;;1.40;0.70;;;3.80;99.90;;;;;;5005134;28;20103;-78
2023/11/28 08:12:32;;;;;;;0.95;0.65;;;3.80;99.90;;;;;;5021026;28;20057;-77
2023/11/28 08:15:37;;;;;;;0.50;0.50;;;3.80;99.90;;;;;;5019964;28;20052;-80
2023/11/28 08:18:09;;;;;;;1.13;0.65;;;3.90;99.90;;;;;;4998482;28;20141;-78
2023/11/28 08:20:36;;;;;;;2.03;1.08;;;3.90;75.40;;;;;;4982942;28;20112;-79
2023/11/28 08:23:03;;;;;;;1.83;0.80;;;3.90;25.30;;;;;;4992214;28;20140;-79
2023/11/28 08:25:30;;;;;;;1.45;0.50;;;3.90;99.90;;;;;;4988968;28;20111;-78
2023/11/28 08:27:57;;;;;;;1.58;0.90;;;3.90;99.90;;;;;;5022076;28;20049;-78
2023/11/28 08:30:24;;;;;;;2.95;0.80;;;3.90;99.90;;;;;;5012184;28;20053;-77
2023/11/28 08:32:51;;;;;;;2.30;0.82;;;3.90;1.00;;;;;;5005073;28;20061;-78
2023/11/28 08:35:18;;;;;;;1.15;0.70;;;3.90;99.90;;;;;;5004735;28;20050;-77
2023/11/28 08:37:45;;;;;;;1.45;0.80;;;4.00;99.90;;;;;;5021002;28;20053;-78
2023/11/28 08:40:13;;;;;;;1.52;0.93;;;4.00;1.00;;;;;;5015938;28;20088;-77
2023/11/28 08:42:39;;;;;;;0.98;0.50;;;4.00;99.90;;;;;;5021950;28;20064;-78
2023/11/28 08:45:08;;;;;;;1.35;0.60;;;4.10;99.90;;;;;;5019232;28;20056;-78
2023/11/28 08:47:35;;;;;;;0.52;0.52;;;4.10;99.90;;;;;;5020347;28;20120;-78
2023/11/28 08:50:05;;;;;;;1.55;0.52;;;4.20;10.20;;;;;;5001007;28;20068;-78
2023/11/28 08:52:33;;;;;;;1.10;0.80;;;4.20;1.00;;;;;;5018805;28;20086;-77
2023/11/28 08:55:01;;;;;;;0.40;0.40;;;4.30;99.90;;;;;;5029675;28;20045;-78
2023/11/28 08:57:33;;;;;;;1.67;0.65;;;4.30;99.90;;;;;;5015419;28;20050;-78
2023/11/28 09:00:04;;;;;;;0.65;0.50;;;4.30;99.90;;;;;;5018458;28;20092;-78
2023/11/28 09:02:31;;;;;;;1.13;0.60;;;4.40;71.40;;;;;;5016738;28;20064;-78
2023/11/28 09:04:58;;;;;;;0.80;0.40;;;4.40;1.00;;;;;;5016282;28;20045;-78
2023/11/28 09:07:27;;;;;;;1.27;0.60;;;4.40;99.90;;;;;;5017072;28;20049;-78
2023/11/28 09:09:54;;;;;;;1.00;0.50;;;4.50;99.90;;;;;;5034933;28;20053;-77
2023/11/28 09:12:21;;;;;;;1.27;0.55;;;4.50;99.90;;;;;;5017556;28;20056;-78
2023/11/28 09:14:48;;;;;;;0.50;0.40;;;4.50;1.00;;;;;;5001740;28;20149;-78
2023/11/28 09:17:22;;;;;;;1.10;0.70;;;4.50;1.00;;;;;;5019626;28;20089;-77
2023/11/28 09:19:49;;;;;;;0.90;0.60;;;4.50;1.00;;;;;;5019683;28;20061;-78
2023/11/28 09:22:17;;;;;;;1.13;0.65;;;4.60;99.90;;;;;;5017324;28;20080;-77
2023/11/28 09:24:44;;;;;;;1.25;0.75;;;4.60;99.90;;;;;;5017524;28;20410;-78
2023/11/28 09:27:12;;;;;;;2.92;1.25;;;4.60;99.90;;;;;;5017881;28;20081;-78
2023/11/28 09:29:39;;;;;;;1.98;0.93;;;4.70;99.90;;;;;;5001897;28;20144;-78
2023/11/28 09:32:06;;;;;;;1.83;0.93;;;4.70;99.90;;;;;;5001999;28;20060;-78
2023/11/28 09:34:34;;;;;;;2.55;1.10;;;4.80;99.90;;;;;;5017794;28;20136;-78
2023/11/28 09:37:01;;;;;;;2.72;1.00;;;4.80;1.00;;;;;;5001265;28;20722;-78
2023/11/28 09:39:28;;;;;;;4.70;1.27;;;4.80;99.90;;;;;;5000560;28;20129;-78
2023/11/28 09:41:58;;;;;;;2.58;1.25;;;4.90;99.90;;;;;;5015812;28;20056;-77
2023/11/28 09:44:26;;;;;;;3.75;1.25;;;4.90;36.00;;;;;;5005579;28;20108;-77
2023/11/28 09:46:54;;;;;;;3.22;1.70;;;5.00;1.00;;;;;;5017164;28;20692;-78
2023/11/28 09:49:20;;;;;;;3.17;1.65;;;5.00;1.00;;;;;;5014704;28;20104;-80
2023/11/28 09:51:48;;;;;;;2.53;1.30;;;5.00;99.90;;;;;;5015500;28;20049;-78
2023/11/28 09:54:15;;;;;;;1.73;0.90;;;5.10;99.90;;;;;;5012408;28;20053;-78
2023/11/28 09:56:45;;;;;;;2.30;0.90;;;5.20;58.60;;;;;;5001995;28;20141;-78
2023/11/28 09:59:15;;;;;;;3.60;1.60;;;5.20;1.00;;;;;;5002084;28;20162;-78
2023/11/28 10:01:42;;;;;;;1.70;1.02;;;5.20;99.90;;;;;;5017404;28;20072;-77
2023/11/28 10:04:10;;;;;;;2.25;1.25;;;5.30;99.90;;;;;;5017800;28;20059;-78
2023/11/28 10:06:40;;;;;;;3.75;1.80;;;5.30;59.70;;;;;;5017055;28;20111;-79
2023/11/28 10:09:08;;;;;;;3.75;1.50;;;5.40;1.00;;;;;;5029695;28;20051;-80
2023/11/28 10:11:36;;;;;;;3.53;1.65;;;5.40;99.90;;;;;;5021932;28;20875;-82
2023/11/28 10:14:03;;;;;;;4.22;1.35;;;5.40;99.90;;;;;;5024913;28;20045;-82
2023/11/28 10:16:59;;;;;;;3.75;1.50;;;5.40;99.90;;;;;;4992977;28;20076;-81
2023/11/28 10:19:28;;;;;;;2.08;1.25;;;5.50;99.90;;;;;;5016449;28;20077;-82
2023/11/28 10:21:55;;;;;;;1.75;1.08;;;5.60;99.90;;;;;;4994845;28;20080;-80
2023/11/28 10:24:22;;;;;;;1.80;0.95;;;5.60;99.90;;;;;;4991851;28;20068;-81
2023/11/28 10:26:49;;;;;;;3.25;1.58;;;5.60;99.90;;;;;;5009239;28;20049;-82
2023/11/28 10:29:17;;;;;;;2.53;1.25;;;5.60;1.00;;;;;;4993885;28;20049;-82
2023/11/28 10:31:44;;;;;;;2.20;1.30;;;5.70;1.00;;;;;;4993016;28;20099;-81
2023/11/28 10:34:13;;;;;;;2.40;1.00;;;5.70;1.00;;;;;;4991902;28;20056;-81
2023/11/28 10:36:42;;;;;;;2.90;1.20;;;5.80;99.90;;;;;;4994410;28;20045;-80
2023/11/28 10:39:15;;;;;;;1.75;1.33;;;5.80;99.90;;;;;;4995707;28;20057;-80
2023/11/28 10:41:42;;;;;;;2.00;0.98;;;5.90;99.90;;;;;;5011552;28;20147;-80
2023/11/28 10:44:09;;;;;;;1.35;0.82;;;5.90;99.90;;;;;;4991865;28;20076;-81
2023/11/28 10:46:38;;;;;;;2.30;1.33;;;6.00;99.90;;;;;;5007390;28;20112;-81
2023/11/28 10:49:05;;;;;;;2.20;1.10;;;6.00;99.90;;;;;;5009103;28;20126;-80
2023/11/28 10:51:33;;;;;;;2.90;1.73;;;6.10;99.90;;;;;;4992179;28;21002;-80
2023/11/28 10:54:11;;;;;;;2.53;1.42;;;6.10;99.90;;;;;;5007766;28;20408;-80
2023/11/28 10:56:52;;;;;;;3.03;1.55;;;6.20;99.90;;;;;;4991693;28;20045;-81
2023/11/28 10:59:37;;;;;;;2.45;1.20;;;6.20;99.90;;;;;;5008471;28;20061;-80
2023/11/28 11:02:05;;;;;;;2.20;1.10;;;6.20;99.90;;;;;;5011159;28;20046;-80
2023/11/28 11:04:32;;;;;;;2.45;1.08;;;6.20;99.90;;;;;;5011107;28;20073;-81
2023/11/28 11:06:59;;;;;;;2.38;1.25;;;6.30;99.90;;;;;;4994569;28;20067;-80
2023/11/28 11:09:27;;;;;;;2.58;1.20;;;6.30;99.90;;;;;;4993418;28;20049;-81
2023/11/28 11:11:55;;;;;;;2.65;1.33;;;6.40;99.90;;;;;;4995213;28;20133;-80
2023/11/28 11:14:37;;;;;;;1.73;0.80;;;6.50;99.90;;;;;;4992662;28;20057;-80
2023/11/28 11:17:26;;;;;;;0.77;0.60;;;6.50;99.90;;;;;;5023973;28;20123;-80
2023/11/28 11:19:55;;;;;;;2.35;0.60;;;6.60;99.90;;;;;;5022943;28;20510;-81
2023/11/28 11:22:22;;;;;;;0.55;0.55;;;6.60;99.90;;;;;;5005561;28;20057;-80
2023/11/28 11:24:49;;;;;;;2.83;0.98;;;6.70;85.00;;;;;;5006736;28;20076;-81
2023/11/28 11:27:19;;;;;;;2.20;1.30;;;6.70;90.50;;;;;;4991355;28;20065;-80
2023/11/28 11:29:46;;;;;;;2.60;1.27;;;6.70;75.00;;;;;;4991118;28;20045;-80
2023/11/28 11:32:15;;;;;;;2.70;1.35;;;6.80;82.90;;;;;;4991675;28;20045;-80
2023/11/28 11:34:47;;;;;;;1.98;1.10;;;6.80;62.60;;;;;;5009898;28;20100;-80
2023/11/28 11:37:21;;;;;;;2.10;0.85;;;6.90;49.60;;;;;;4993891;28;20478;-81
2023/11/28 11:39:50;;;;;;;1.55;0.75;;;6.90;52.80;;;;;;4993496;28;20471;-80
2023/11/28 11:42:24;;;;;;;2.08;1.10;;;7.00;40.50;;;;;;4993952;28;20049;-80
2023/11/28 11:44:51;;;;;;;3.63;1.10;;;7.10;19.90;;;;;;5010280;28;20573;-80
2023/11/28 11:47:20;;;;;;;1.52;0.80;;;7.20;8.40;;;;;;5005292;28;20156;-80
2023/11/28 11:49:49;;;;;;;3.17;0.82;;;7.30;1.00;;;;;;4987421;28;20055;-81
2023/11/28 11:52:16;;;;;;;2.55;1.35;;;7.40;1.00;;;;;;4989386;28;20157;-80
2023/11/28 11:54:44;;;;;;;0.95;0.60;;;7.50;1.00;;;;;;4999790;28;20057;-80
2023/11/28 11:57:12;;;;;;;0.73;0.50;;;7.60;1.00;;;;;;5025234;28;20053;-80
2023/11/28 11:59:40;;;;;;;1.48;0.82;;;7.80;1.00;;;;;;5006837;28;20057;-81
2023/11/28 12:02:08;;;;;;;1.83;0.80;;;7.70;1.00;;;;;;4991140;28;20053;-79
2023/11/28 12:04:43;;;;;;;2.92;1.00;;;7.60;1.00;;;;;;5006585;28;20060;-79
2023/11/28 12:07:14;;;;;;;0.82;0.63;;;7.70;1.00;;;;;;5006629;28;20060;-80
2023/11/28 12:09:41;;;;;;;1.60;0.82;;;7.80;1.00;;;;;;5005552;28;20125;-80
2023/11/28 12:12:13;;;;;;;4.22;1.27;;;7.70;1.00;;;;;;5006564;28;20053;-80
2023/11/28 12:14:40;;;;;;;2.65;1.35;;;7.60;1.00;;;;;;4991014;28;20057;-80
2023/11/28 12:17:07;;;;;;;2.72;0.88;;;7.60;1.00;;;;;;4989820;28;20069;-81
2023/11/28 12:19:35;;;;;;;2.13;1.05;;;7.50;1.00;;;;;;4990118;28;20061;-80
2023/11/28 12:22:08;;;;;;;2.35;0.88;;;7.50;1.00;;;;;;4989563;28;20128;-80
2023/11/28 12:24:35;;;;;;;4.15;1.10;;;7.40;1.00;;;;;;4990161;28;20061;-79
2023/11/28 12:27:02;;;;;;;1.33;0.75;;;7.40;1.00;;;;;;5022204;28;20215;-80
2023/11/28 12:29:32;;;;;;;1.27;0.80;;;7.40;1.00;;;;;;5022174;28;20053;-80
2023/11/28 12:32:00;;;;;;;2.53;0.98;;;7.50;1.00;;;;;;4989573;28;20082;-79
2023/11/28 12:34:28;;;;;;;1.20;0.77;;;7.50;1.00;;;;;;4988907;28;20057;-80
2023/11/28 12:36:58;;;;;;;1.25;0.80;;;7.50;1.00;;;;;;4989721;28;20094;-80
2023/11/28 12:39:27;;;;;;;0.98;0.70;;;7.60;1.00;;;;;;5004663;28;20059;-80
2023/11/28 12:41:54;;;;;;;1.45;0.68;;;7.60;1.00;;;;;;4989446;28;20049;-80
2023/11/28 12:44:24;;;;;;;3.80;1.58;;;7.50;1.00;;;;;;5005787;28;20083;-79
2023/11/28 12:46:52;;;;;;;1.90;0.52;;;7.50;1.00;;;;;;5005686;28;20554;-80
2023/11/28 12:49:20;;;;;;;1.92;0.80;;;7.40;1.00;;;;;;5005690;28;20045;-79
2023/11/28 12:51:46;;;;;;;1.33;0.77;;;7.40;1.00;;;;;;5004583;28;20561;-79
2023/11/28 12:54:13;;;;;;;1.50;0.57;;;7.40;1.00;;;;;;5004460;28;20045;-79
2023/11/28 12:56:55;;;;;;;1.50;0.60;;;7.30;1.00;;;;;;4989891;28;20053;-80
2023/11/28 12:59:22;;;;;;;2.55;1.00;;;7.30;1.00;;;;;;5006295;28;20049;-79
2023/11/28 13:01:51;;;;;;;1.30;0.73;;;7.20;1.00;;;;;;4989089;28;20160;-80
2023/11/28 13:04:22;;;;;;;0.85;0.50;;;7.20;1.00;;;;;;4990629;28;20073;-79